Navocean O, Mississippi
Current Conditions -  °F | °C
As of 9:53 AM on Saturday 22 Nov 2014 (Local Time) from KGPT Reporting Station
Clear Clear  
Wind Chill: 66°   Ceiling: Unl
Heat Index: 66°   Visibility: 10mi
Dew Point: 51°   Wind: 14mph
Humidity: 59%   Direction: 80°E
Pressure: 30.24"   Gusts: NA
Location:  30.3127°N, 89.326°W
Report Text: KGPT 221553Z 08012KT 10SM CLR 19/11 A3024 RMK AO2 SLP238 T01890106
Loading
Personal Weather Stations






























Interactive Weather Map New forecast layout! Learn more

10-Day Weather Forecast

Advertisements
Track Severe Weather on mobile